Time;durP1;ratioP1;P1;durP2;ratioP2;P2;SDS_P1;SDS_P2;PMS_P1;PMS_P2;Temp;Humidity;BMP_temperature;BMP_pressure;BME280_temperature;BME280_humidity;BME280_pressure;Samples;Min_cycle;Max_cycle;Signal;HPM_P1;HPM_P2
2022/04/14 00:00:53;;;;;;;21.17;11.52;;;;;;;9.73;62.96;100767.81;4880975;29;20114;-81
2022/04/14 00:03:22;;;;;;;20.42;11.73;;;;;;;9.60;62.78;100758.69;4879659;29;20053;-82
2022/04/14 00:05:50;;;;;;;21.73;11.55;;;;;;;9.63;62.88;100758.53;4881153;29;20056;-78
2022/04/14 00:08:18;;;;;;;19.23;11.52;;;;;;;9.60;63.50;100752.50;4880427;29;20049;-77
2022/04/14 00:10:48;;;;;;;26.58;13.25;;;;;;;9.43;64.30;100756.81;4880387;29;20049;-78
2022/04/14 00:13:17;;;;;;;22.23;12.77;;;;;;;9.33;64.36;100758.19;4880114;29;20056;-78
2022/04/14 00:15:45;;;;;;;21.67;12.18;;;;;;;9.41;64.16;100752.53;4879322;29;20053;-76
2022/04/14 00:18:13;;;;;;;21.70;12.57;;;;;;;9.40;64.96;100761.44;4880313;29;20105;-76
2022/04/14 00:20:42;;;;;;;20.75;12.32;;;;;;;9.31;65.33;100757.41;4879456;29;20478;-77
2022/04/14 00:23:10;;;;;;;22.90;12.45;;;;;;;9.06;66.71;100760.34;4880683;29;20049;-77
2022/04/14 00:25:39;;;;;;;21.40;12.52;;;;;;;8.98;67.64;100764.31;4880208;29;20052;-78
2022/04/14 00:28:08;;;;;;;20.30;12.00;;;;;;;8.83;68.55;100761.38;4879085;29;20418;-77
2022/04/14 00:30:36;;;;;;;21.50;12.70;;;;;;;8.84;68.74;100763.13;4878967;29;20449;-76
2022/04/14 00:33:05;;;;;;;22.60;12.57;;;;;;;8.75;69.51;100762.66;4880623;29;20144;-77
2022/04/14 00:35:33;;;;;;;25.85;13.43;;;;;;;8.67;69.32;100760.34;4885772;29;20147;-80
2022/04/14 00:38:01;;;;;;;22.67;13.18;;;;;;;8.52;70.08;100745.94;4899096;29;20443;-82
2022/04/14 00:40:29;;;;;;;24.33;12.20;;;;;;;8.58;70.63;100753.63;4898554;29;20051;-84
2022/04/14 00:42:58;;;;;;;23.13;13.23;;;;;;;8.66;69.39;100758.63;4899395;29;20124;-82
2022/04/14 00:45:28;;;;;;;25.42;12.95;;;;;;;8.60;68.65;100758.91;4882044;29;20463;-83
2022/04/14 00:47:56;;;;;;;20.58;12.60;;;;;;;8.57;68.46;100756.34;4898712;29;20465;-83
2022/04/14 00:50:24;;;;;;;21.05;11.88;;;;;;;8.53;68.95;100752.97;4898122;29;20051;-81
2022/04/14 00:52:54;;;;;;;23.55;13.27;;;;;;;8.24;70.50;100751.53;4898817;29;20087;-82
2022/04/14 00:55:23;;;;;;;22.73;12.57;;;;;;;8.38;70.01;100756.28;4898645;29;20066;-81
2022/04/14 00:57:51;;;;;;;21.05;12.43;;;;;;;8.27;70.33;100761.19;4898751;29;20037;-81
2022/04/14 01:00:19;;;;;;;21.25;13.23;;;;;;;8.21;71.25;100756.13;4898405;29;20131;-81
2022/04/14 01:02:49;;;;;;;23.67;13.18;;;;;;;8.20;70.93;100755.28;4898601;29;20473;-81
2022/04/14 01:05:19;;;;;;;22.88;13.23;;;;;;;8.25;70.73;100750.63;4898562;29;20044;-79
2022/04/14 01:07:48;;;;;;;23.60;13.02;;;;;;;8.28;70.67;100747.81;4898731;29;20044;-77
2022/04/14 01:10:17;;;;;;;25.50;12.90;;;;;;;8.51;69.50;100757.50;4881869;29;20108;-77
2022/04/14 01:12:45;;;;;;;23.67;12.70;;;;;;;8.44;69.54;100753.38;4898484;29;20044;-77
2022/04/14 01:15:14;;;;;;;20.75;11.85;;;;;;;8.35;70.03;100751.13;4881345;29;20052;-77
2022/04/14 01:17:43;;;;;;;23.25;12.93;;;;;;;8.30;70.07;100755.75;4897777;29;20049;-79
2022/04/14 01:20:13;;;;;;;24.98;12.70;;;;;;;8.29;69.78;100749.53;4898076;29;20096;-78
2022/04/14 01:22:46;;;;;;;19.38;11.50;;;;;;;8.29;69.50;100746.88;4897916;29;20045;-78
2022/04/14 01:25:18;;;;;;;16.77;11.10;;;;;;;8.34;69.00;100746.69;4898450;29;20052;-77
2022/04/14 01:27:46;;;;;;;21.08;11.95;;;;;;;8.34;69.42;100749.34;4881650;29;20069;-78
2022/04/14 01:30:15;;;;;;;22.92;12.15;;;;;;;8.28;69.24;100744.28;4897997;29;20083;-77
2022/04/14 01:32:43;;;;;;;23.98;11.77;;;;;;;8.36;68.78;100746.66;4881156;29;20495;-78
2022/04/14 01:35:11;;;;;;;19.52;11.93;;;;;;;8.15;69.63;100745.75;4898194;29;20451;-78
2022/04/14 01:37:40;;;;;;;19.88;11.80;;;;;;;8.15;69.82;100746.63;4898268;29;20056;-79
2022/04/14 01:40:09;;;;;;;21.15;12.27;;;;;;;8.12;69.88;100745.91;4898105;29;20104;-77
2022/04/14 01:42:39;;;;;;;21.38;12.25;;;;;;;8.02;70.37;100751.59;4898104;29;20057;-76
2022/04/14 01:45:09;;;;;;;19.40;11.43;;;;;;;7.99;70.59;100751.69;4898119;29;20048;-79
2022/04/14 01:47:41;;;;;;;20.80;12.30;;;;;;;8.08;70.37;100744.28;4881429;29;20052;-79
2022/04/14 01:50:12;;;;;;;19.48;12.02;;;;;;;8.01;70.42;100749.88;4898121;29;20044;-79
2022/04/14 01:52:41;;;;;;;17.70;11.35;;;;;;;8.13;69.99;100750.28;4881013;29;20076;-78
2022/04/14 01:55:10;;;;;;;21.00;11.98;;;;;;;8.18;69.76;100756.25;4898118;29;20080;-78
2022/04/14 01:57:40;;;;;;;20.13;11.32;;;;;;;8.03;70.38;100761.28;4897757;29;20045;-78
2022/04/14 02:00:10;;;;;;;16.98;11.18;;;;;;;8.00;70.71;100761.41;4898152;29;20087;-78
2022/04/14 02:02:40;;;;;;;21.48;12.00;;;;;;;8.03;70.51;100760.44;4897677;29;20052;-77
2022/04/14 02:05:10;;;;;;;18.33;11.90;;;;;;;8.00;70.85;100750.78;4897707;29;20569;-77
2022/04/14 02:07:38;;;;;;;22.13;11.57;;;;;;;7.91;70.98;100753.84;4898252;29;20490;-77
2022/04/14 02:10:07;;;;;;;22.40;12.05;;;;;;;8.02;70.81;100754.25;4901441;29;20068;-77
2022/04/14 02:12:35;;;;;;;19.83;12.40;;;;;;;7.94;71.23;100764.31;4884550;29;20486;-78
2022/04/14 02:15:06;;;;;;;22.23;12.35;;;;;;;7.91;71.31;100745.88;4884733;29;20052;-78
2022/04/14 02:17:34;;;;;;;20.38;11.95;;;;;;;7.88;71.84;100753.94;4884308;29;20048;-76
2022/04/14 02:20:02;;;;;;;24.27;11.88;;;;;;;7.79;71.96;100743.69;4901275;29;20087;-77
2022/04/14 02:22:30;;;;;;;20.95;11.48;;;;;;;7.92;71.71;100749.38;4884011;29;20479;-77
2022/04/14 02:24:59;;;;;;;21.00;12.23;;;;;;;7.83;72.11;100752.41;4901372;29;20100;-77
2022/04/14 02:27:27;;;;;;;20.35;12.23;;;;;;;7.73;72.98;100754.59;4884082;29;20052;-78
2022/04/14 02:29:55;;;;;;;20.05;11.88;;;;;;;7.88;72.29;100748.63;4884272;29;20049;-77
2022/04/14 02:32:24;;;;;;;18.00;11.70;;;;;;;7.86;72.31;100746.97;4884158;29;20124;-79
2022/04/14 02:34:53;;;;;;;23.17;13.10;;;;;;;7.63;73.44;100753.22;4901054;29;20049;-77
2022/04/14 02:37:21;;;;;;;20.75;11.80;;;;;;;7.65;73.12;100744.25;4884175;29;20053;-76
2022/04/14 02:39:49;;;;;;;19.63;11.98;;;;;;;7.64;73.88;100760.25;4901018;29;20040;-77
2022/04/14 02:42:17;;;;;;;19.95;12.55;;;;;;;7.44;74.82;100759.25;4900771;29;20048;-77
2022/04/14 02:44:45;;;;;;;20.88;12.20;;;;;;;7.59;74.46;100767.53;4900554;29;20045;-76
2022/04/14 02:47:13;;;;;;;22.98;13.15;;;;;;;7.53;74.77;100757.16;4900902;29;20045;-79
2022/04/14 02:49:43;;;;;;;18.45;11.90;;;;;;;7.51;74.35;100759.88;4900471;29;20048;-78
2022/04/14 02:52:11;;;;;;;21.38;12.23;;;;;;;7.41;74.77;100756.69;4900797;29;20058;-78
2022/04/14 02:54:41;;;;;;;22.77;12.60;;;;;;;7.36;75.03;100761.34;4900522;29;20051;-78
2022/04/14 02:57:10;;;;;;;24.40;12.52;;;;;;;7.07;76.20;100751.84;4900615;29;20147;-77
2022/04/14 02:59:39;;;;;;;21.20;12.77;;;;;;;7.20;76.19;100760.19;4900342;29;20049;-77
2022/04/14 03:02:07;;;;;;;21.80;12.95;;;;;;;7.21;76.24;100761.06;4900393;29;20051;-78
2022/04/14 03:04:35;;;;;;;22.95;13.00;;;;;;;7.16;76.59;100758.59;4900083;29;20052;-77
2022/04/14 03:07:05;;;;;;;22.40;12.80;;;;;;;7.17;76.63;100758.53;4883420;29;20075;-76
2022/04/14 03:09:33;;;;;;;23.70;12.20;;;;;;;7.13;76.51;100754.25;4899871;29;20045;-78
2022/04/14 03:12:02;;;;;;;21.63;12.82;;;;;;;7.08;76.50;100755.38;4900019;29;20044;-77
2022/04/14 03:14:30;;;;;;;19.60;11.68;;;;;;;7.13;76.41;100750.72;4883170;29;20144;-78
2022/04/14 03:16:58;;;;;;;18.20;11.10;;;;;;;7.04;76.84;100759.03;4883317;29;20486;-79
2022/04/14 03:19:26;;;;;;;17.52;11.38;;;;;;;7.07;76.41;100759.81;4900304;29;20060;-79
2022/04/14 03:21:54;;;;;;;20.23;11.80;;;;;;;7.15;75.96;100762.19;4900000;29;20136;-76
2022/04/14 03:24:24;;;;;;;18.70;11.02;;;;;;;7.16;75.93;100761.25;4883163;29;20052;-77
2022/04/14 03:26:52;;;;;;;22.23;11.88;;;;;;;7.22;75.73;100758.34;4900191;29;20104;-77
2022/04/14 03:29:20;;;;;;;19.52;12.45;;;;;;;7.11;76.70;100760.53;4882952;29;20104;-76
2022/04/14 03:31:49;;;;;;;19.77;12.02;;;;;;;6.83;78.19;100750.97;4899673;29;20052;-75
2022/04/14 03:34:17;;;;;;;21.77;12.45;;;;;;;6.83;79.32;100753.59;4900086;29;20059;-77
2022/04/14 03:36:45;;;;;;;23.92;13.52;;;;;;;6.72;80.30;100760.22;4899478;29;20084;-74
2022/04/14 03:39:17;;;;;;;21.02;13.45;;;;;;;6.63;81.06;100764.06;4899740;29;20068;-76
2022/04/14 03:41:47;;;;;;;22.42;13.20;;;;;;;6.70;80.90;100754.13;4899500;29;20498;-75
2022/04/14 03:44:15;;;;;;;24.40;13.73;;;;;;;6.86;80.21;100766.78;4883149;29;20108;-77
2022/04/14 03:46:44;;;;;;;24.88;13.23;;;;;;;6.88;79.71;100764.94;4899466;29;20045;-77
2022/04/14 03:49:12;;;;;;;21.58;12.60;;;;;;;6.87;80.00;100763.19;4899510;29;20076;-77
2022/04/14 03:51:40;;;;;;;21.38;12.80;;;;;;;6.86;80.48;100765.91;4899581;29;20471;-77
2022/04/14 03:54:08;;;;;;;22.10;12.82;;;;;;;6.98;79.32;100765.44;4882900;29;20071;-76
2022/04/14 03:56:36;;;;;;;23.67;13.45;;;;;;;6.77;80.74;100776.84;4899484;29;20052;-76
2022/04/14 03:59:06;;;;;;;21.15;13.50;;;;;;;6.70;81.04;100765.59;4899080;29;20073;-78
2022/04/14 04:01:34;;;;;;;19.42;13.40;;;;;;;6.68;81.09;100772.75;4899262;29;20052;-76
2022/04/14 04:04:03;;;;;;;22.27;13.15;;;;;;;6.61;81.33;100771.22;4899514;29;20059;-77
2022/04/14 04:06:31;;;;;;;21.58;13.38;;;;;;;6.78;79.89;100779.44;4882173;29;20561;-78
2022/04/14 04:08:59;;;;;;;30.20;15.05;;;;;;;6.84;80.25;100768.59;4899141;29;20048;-75
2022/04/14 04:11:27;;;;;;;29.58;13.63;;;;;;;6.69;81.29;100782.44;4898994;29;20072;-75
2022/04/14 04:13:57;;;;;;;25.38;13.50;;;;;;;6.58;81.57;100777.50;4899342;29;20072;-76
2022/04/14 04:16:29;;;;;;;21.75;13.20;;;;;;;6.68;81.04;100777.19;4898960;29;20063;-76
2022/04/14 04:18:57;;;;;;;21.27;13.27;;;;;;;6.80;80.80;100774.94;4898863;29;20100;-77
2022/04/14 04:21:27;;;;;;;25.55;13.27;;;;;;;6.89;80.00;100779.06;4882121;29;20059;-78
2022/04/14 04:23:55;;;;;;;27.63;14.02;;;;;;;6.96;79.38;100787.66;4882199;29;20418;-77
2022/04/14 04:26:23;;;;;;;31.85;16.13;;;;;;;7.05;79.02;100793.50;4882070;29;20056;-77
2022/04/14 04:28:51;;;;;;;28.83;15.07;;;;;;;6.93;79.46;100793.06;4898711;29;20053;-76
2022/04/14 04:31:20;;;;;;;44.15;20.52;;;;;;;6.99;79.22;100788.41;4898489;29;20048;-75
2022/04/14 04:33:51;;;;;;;49.25;20.38;;;;;;;7.05;78.97;100788.19;4881830;29;20057;-76
2022/04/14 04:36:19;;;;;;;34.90;16.50;;;;;;;7.19;78.03;100790.31;4899196;29;20059;-76
2022/04/14 04:38:48;;;;;;;21.45;12.50;;;;;;;7.16;78.12;100787.78;4898739;29;20108;-76
2022/04/14 04:41:16;;;;;;;28.33;12.45;;;;;;;7.11;78.71;100795.03;4898752;29;20080;-76
2022/04/14 04:43:44;;;;;;;20.95;13.52;;;;;;;7.00;79.00;100791.91;4898513;29;20553;-76
2022/04/14 04:46:13;;;;;;;27.20;14.30;;;;;;;7.13;79.11;100795.81;4898864;29;20051;-77
2022/04/14 04:48:41;;;;;;;20.73;13.02;;;;;;;7.27;78.03;100798.84;4881759;29;20052;-76
2022/04/14 04:51:10;;;;;;;21.15;13.48;;;;;;;7.05;79.15;100808.53;4898514;29;20050;-76
2022/04/14 04:53:39;;;;;;;28.73;13.30;;;;;;;7.20;78.79;100805.31;4898223;29;20076;-76
2022/04/14 04:56:07;;;;;;;22.58;12.75;;;;;;;7.37;77.95;100802.03;4881848;29;20152;-77
2022/04/14 04:58:35;;;;;;;23.40;13.88;;;;;;;7.54;77.39;100801.38;4898370;29;20135;-76
2022/04/14 05:01:03;;;;;;;20.45;12.68;;;;;;;7.85;75.27;100799.22;4881908;29;20083;-74
2022/04/14 05:03:32;;;;;;;23.88;12.93;;;;;;;7.83;76.21;100809.06;4882109;29;20056;-76
2022/04/14 05:06:00;;;;;;;22.50;13.18;;;;;;;7.86;75.81;100808.94;4881794;29;20044;-76
2022/04/14 05:08:29;;;;;;;27.45;13.27;;;;;;;8.15;74.81;100804.22;4881726;29;20458;-75
2022/04/14 05:11:06;;;;;;;24.40;13.13;;;;;;;8.16;73.74;100811.25;4881783;29;20052;-78
2022/04/14 05:13:34;;;;;;;23.02;13.25;;;;;;;7.97;74.62;100812.00;4881373;29;20052;-76
2022/04/14 05:16:04;;;;;;;23.00;13.55;;;;;;;8.04;74.59;100808.19;4898628;29;20044;-76
2022/04/14 05:18:35;;;;;;;21.92;13.90;;;;;;;8.15;74.39;100806.88;4898201;29;20052;-75
2022/04/14 05:21:03;;;;;;;23.77;13.38;;;;;;;7.94;75.24;100806.81;4881624;29;20053;-74
2022/04/14 05:23:33;;;;;;;22.13;14.85;;;;;;;7.56;77.70;100808.34;4898425;29;20602;-78
2022/04/14 05:26:01;;;;;;;25.08;14.77;;;;;;;7.62;78.23;100817.84;4881438;29;20052;-81
2022/04/14 05:28:30;;;;;;;24.27;15.52;;;;;;;7.76;77.23;100818.19;4881537;29;20510;-80
2022/04/14 05:30:58;;;;;;;25.40;14.73;;;;;;;7.97;76.07;100817.31;4881328;29;20135;-82
2022/04/14 05:33:27;;;;;;;25.00;15.65;;;;;;;7.99;75.72;100827.88;4898136;29;20044;-79
2022/04/14 05:35:55;;;;;;;27.73;15.38;;;;;;;7.99;75.87;100826.09;4897771;29;20057;-83
2022/04/14 05:38:24;;;;;;;31.08;16.08;;;;;;;8.10;74.89;100811.50;4881485;29;20116;-77
2022/04/14 05:40:54;;;;;;;31.77;15.80;;;;;;;7.95;75.75;100819.19;4898105;29;20051;-82
2022/04/14 05:43:25;;;;;;;29.33;15.93;;;;;;;8.15;74.71;100821.03;4900050;29;20554;-75
2022/04/14 05:45:53;;;;;;;25.55;15.25;;;;;;;8.32;74.00;100830.97;4897323;29;20054;-74
2022/04/14 05:48:21;;;;;;;27.33;15.35;;;;;;;8.33;73.74;100833.56;4880063;29;20052;-76
2022/04/14 05:50:50;;;;;;;26.25;15.65;;;;;;;8.52;73.03;100840.78;4882445;29;20108;-76
2022/04/14 05:53:26;;;;;;;24.65;14.95;;;;;;;8.80;71.85;100829.84;4896636;29;20051;-77
2022/04/14 05:55:56;;;;;;;23.27;15.52;;;;;;;9.08;70.32;100825.03;4901844;29;20044;-76
2022/04/14 05:58:25;;;;;;;28.42;15.32;;;;;;;9.30;69.85;100835.56;4885127;29;20422;-77
2022/04/14 06:00:53;;;;;;;26.98;14.95;;;;;;;9.49;69.07;100837.38;4884816;29;20502;-74
2022/04/14 06:03:21;;;;;;;27.58;15.27;;;;;;;9.99;66.55;100825.19;4885828;29;20049;-77
2022/04/14 06:05:49;;;;;;;25.05;14.38;;;;;;;10.25;65.02;100826.59;4903694;29;20104;-75
2022/04/14 06:08:18;;;;;;;24.02;14.18;;;;;;;10.86;62.59;100827.94;4905438;29;20084;-75
2022/04/14 06:10:46;;;;;;;25.85;14.10;;;;;;;11.70;58.54;100818.06;4903037;29;20049;-77
2022/04/14 06:13:16;;;;;;;27.15;14.38;;;;;;;12.56;56.13;100817.53;4900476;29;20437;-75
2022/04/14 06:15:44;;;;;;;20.38;14.02;;;;;;;12.67;55.09;100818.72;4885000;29;20044;-74
2022/04/14 06:18:13;;;;;;;26.27;14.60;;;;;;;13.00;55.25;100807.75;4902834;29;20055;-74
2022/04/14 06:20:41;;;;;;;23.23;14.18;;;;;;;12.95;53.36;100815.25;4885106;29;20108;-78
2022/04/14 06:23:10;;;;;;;22.02;13.48;;;;;;;14.18;50.62;100812.69;4885440;29;20052;-75
2022/04/14 06:25:38;;;;;;;22.40;13.93;;;;;;;14.35;49.31;100813.41;4884473;29;20052;-74
2022/04/14 06:28:07;;;;;;;22.65;13.95;;;;;;;14.77;48.20;100815.91;4884392;29;20597;-75
2022/04/14 06:30:37;;;;;;;22.05;14.52;;;;;;;14.61;47.90;100817.91;4884363;29;20064;-78
2022/04/14 06:33:05;;;;;;;23.65;13.43;;;;;;;15.31;45.98;100821.06;4887180;29;20048;-75
2022/04/14 06:35:34;;;;;;;22.13;13.85;;;;;;;16.46;43.22;100816.22;4902156;29;20100;-78
2022/04/14 06:38:02;;;;;;;25.63;14.48;;;;;;;15.95;44.18;100816.47;4884902;29;20538;-78
2022/04/14 06:40:33;;;;;;;22.13;14.15;;;;;;;15.91;43.49;100816.78;4885858;29;20048;-79
2022/04/14 06:43:02;;;;;;;20.52;13.70;;;;;;;15.44;44.48;100816.56;4901620;29;20049;-77
2022/04/14 06:45:32;;;;;;;25.73;14.45;;;;;;;14.97;46.39;100811.00;4902322;29;20410;-77
2022/04/14 06:48:01;;;;;;;23.08;14.48;;;;;;;15.03;45.78;100815.91;4884796;29;20052;-77
2022/04/14 06:50:30;;;;;;;26.38;15.40;;;;;;;15.24;45.23;100814.41;4885106;29;20104;-76
2022/04/14 06:52:58;;;;;;;22.23;14.02;;;;;;;15.63;43.29;100813.44;4884373;29;20418;-78
2022/04/14 06:55:28;;;;;;;24.98;14.98;;;;;;;15.38;44.71;100821.50;4884679;29;20052;-78
2022/04/14 06:57:58;;;;;;;24.58;14.63;;;;;;;15.15;45.17;100815.94;4901727;29;20153;-75
2022/04/14 07:00:27;;;;;;;22.33;14.73;;;;;;;14.69;47.37;100809.34;4884915;29;20057;-79
2022/04/14 07:02:57;;;;;;;25.15;15.00;;;;;;;14.44;46.04;100808.28;4900892;29;20052;-77
2022/04/14 07:05:27;;;;;;;27.90;15.30;;;;;;;14.38;46.43;100813.19;4901413;29;20056;-78
2022/04/14 07:07:55;;;;;;;23.52;14.63;;;;;;;14.53;44.67;100801.47;4884630;29;20395;-78
2022/04/14 07:10:23;;;;;;;25.70;14.50;;;;;;;14.49;44.71;100808.03;4901824;29;20048;-77
2022/04/14 07:12:51;;;;;;;24.88;14.32;;;;;;;14.60;44.95;100800.09;4902508;29;20073;-79
2022/04/14 07:15:19;;;;;;;23.73;13.18;;;;;;;14.89;43.77;100806.16;4885227;29;20076;-77
2022/04/14 07:17:48;;;;;;;17.13;11.52;;;;;;;15.01;42.27;100807.13;4901580;29;20044;-78
2022/04/14 07:20:17;;;;;;;19.70;11.93;;;;;;;15.00;42.15;100806.25;4884730;29;20056;-78
2022/04/14 07:22:49;;;;;;;18.85;11.15;;;;;;;15.11;41.90;100813.56;4901484;29;20048;-75
2022/04/14 07:25:24;;;;;;;16.08;9.27;;;;;;;15.12;41.55;100807.22;4901102;29;20106;-78
2022/04/14 07:27:53;;;;;;;16.83;10.15;;;;;;;15.06;41.58;100804.97;4884172;29;20053;-78
2022/04/14 07:30:23;;;;;;;17.63;10.38;;;;;;;15.15;41.38;100802.50;4884553;29;20053;-76
2022/04/14 07:32:52;;;;;;;18.60;10.48;;;;;;;15.25;41.85;100807.19;4901350;29;20048;-78
2022/04/14 07:35:22;;;;;;;18.25;10.13;;;;;;;15.34;41.00;100807.41;4884566;29;20445;-77
2022/04/14 07:37:52;;;;;;;16.50;9.07;;;;;;;15.57;39.80;100802.22;4885209;29;20105;-77
2022/04/14 07:40:20;;;;;;;15.55;8.65;;;;;;;15.39;39.04;100805.25;4901627;29;20056;-78
2022/04/14 07:42:50;;;;;;;21.73;8.68;;;;;;;15.31;40.08;100807.63;4884066;29;20052;-76
2022/04/14 07:45:19;;;;;;;15.40;8.60;;;;;;;15.37;39.85;100799.16;4900702;29;20049;-75
2022/04/14 07:47:47;;;;;;;13.38;7.05;;;;;;;15.39;38.84;100791.81;4884131;29;20112;-77
2022/04/14 07:50:19;;;;;;;11.27;6.95;;;;;;;15.50;38.28;100798.25;4884452;29;20068;-77
2022/04/14 07:52:49;;;;;;;14.65;7.05;;;;;;;15.59;36.46;100800.28;4884057;29;20060;-77
2022/04/14 07:55:23;;;;;;;11.38;6.40;;;;;;;15.57;35.12;100800.41;4884080;29;20053;-76
2022/04/14 07:57:53;;;;;;;12.50;6.88;;;;;;;15.74;35.32;100797.38;4900995;29;20051;-78
2022/04/14 08:00:23;;;;;;;12.52;6.65;;;;;;;15.78;35.48;100800.69;4884159;29;20063;-78
2022/04/14 08:02:54;;;;;;;11.30;6.03;;;;;;;15.83;34.00;100801.22;4883781;29;20049;-79
2022/04/14 08:05:27;;;;;;;11.38;5.57;;;;;;;15.83;33.60;100801.22;4882990;29;20063;-78
2022/04/14 08:07:55;;;;;;;11.73;5.50;;;;;;;15.79;31.56;100799.72;4883712;29;20515;-76
2022/04/14 08:10:25;;;;;;;9.70;5.70;;;;;;;15.79;31.65;100794.34;4900460;29;20044;-76
2022/04/14 08:12:54;;;;;;;13.20;5.45;;;;;;;15.84;31.93;100791.34;4899868;29;20076;-78
2022/04/14 08:15:22;;;;;;;11.80;5.93;;;;;;;15.94;31.01;100798.59;4883516;29;20045;-76
2022/04/14 08:17:51;;;;;;;11.05;5.78;;;;;;;15.93;32.40;100802.28;4883728;29;20052;-78
2022/04/14 08:20:20;;;;;;;11.90;5.18;;;;;;;15.92;30.80;100799.66;4883316;29;20052;-78
2022/04/14 08:22:50;;;;;;;10.73;4.88;;;;;;;16.15;30.96;100790.75;4900224;29;20158;-77
2022/04/14 08:25:20;;;;;;;12.25;5.13;;;;;;;16.31;29.87;100795.88;4900039;29;20048;-76
2022/04/14 08:27:50;;;;;;;7.65;4.45;;;;;;;16.43;29.39;100800.31;4883523;29;20059;-77
2022/04/14 08:30:20;;;;;;;8.05;4.25;;;;;;;16.56;28.02;100805.63;4883250;29;20080;-77
2022/04/14 08:32:50;;;;;;;7.00;4.10;;;;;;;16.67;27.89;100794.88;4899855;29;20049;-76
2022/04/14 08:35:20;;;;;;;11.40;5.28;;;;;;;16.70;28.57;100796.53;4899877;29;20120;-77
2022/04/14 08:37:50;;;;;;;7.32;4.00;;;;;;;16.69;27.23;100794.78;4879612;29;20056;-78
2022/04/14 08:40:22;;;;;;;7.18;4.07;;;;;;;16.56;27.16;100797.53;4879931;29;20080;-77
2022/04/14 08:42:55;;;;;;;8.48;4.35;;;;;;;16.57;28.00;100802.81;4880526;29;20049;-77
2022/04/14 08:45:25;;;;;;;7.50;3.22;;;;;;;16.61;26.19;100787.28;4880077;29;20053;-77
2022/04/14 08:47:54;;;;;;;5.82;3.42;;;;;;;16.75;25.58;100794.31;4882845;29;20104;-77
2022/04/14 08:50:23;;;;;;;7.10;3.58;;;;;;;16.88;25.53;100798.63;4881313;29;20135;-77
2022/04/14 08:52:53;;;;;;;8.63;4.07;;;;;;;16.82;25.56;100790.19;4880738;29;20084;-78
2022/04/14 08:55:22;;;;;;;10.77;3.83;;;;;;;16.93;25.40;100798.28;4881198;29;20139;-77
2022/04/14 08:57:50;;;;;;;7.22;3.92;;;;;;;17.04;25.94;100794.75;4881268;29;20113;-77
2022/04/14 09:00:20;;;;;;;7.90;3.72;;;;;;;17.14;25.99;100791.19;4879566;29;20135;-78
2022/04/14 09:02:51;;;;;;;7.18;3.78;;;;;;;17.13;25.48;100791.31;4879715;29;20048;-77
2022/04/14 09:05:20;;;;;;;8.77;3.80;;;;;;;17.02;25.12;100786.78;4879833;29;20057;-78
2022/04/14 09:07:49;;;;;;;7.93;3.97;;;;;;;17.15;25.33;100776.75;4880022;29;20506;-78
2022/04/14 09:10:18;;;;;;;7.25;3.75;;;;;;;17.17;25.65;100790.09;4880185;29;20060;-78
2022/04/14 09:12:48;;;;;;;6.45;3.80;;;;;;;17.29;25.27;100782.88;4881311;29;20073;-77
2022/04/14 09:15:18;;;;;;;6.60;3.53;;;;;;;17.31;25.63;100780.94;4880376;29;20057;-77
2022/04/14 09:17:47;;;;;;;8.68;3.50;;;;;;;17.33;26.03;100778.97;4882117;29;20042;-78
2022/04/14 09:20:33;;;;;;;6.32;3.58;;;;;;;17.46;25.47;100774.28;4881006;29;20096;-78
2022/04/14 09:23:27;;;;;;;7.03;3.67;;;;;;;17.36;25.55;100773.31;4880065;29;20076;-78
2022/04/14 09:26:11;;;;;;;8.00;3.90;;;;;;;17.32;26.04;100777.25;4877676;29;20061;-79
2022/04/14 09:28:40;;;;;;;9.52;4.45;;;;;;;17.24;26.32;100771.59;4880423;29;20059;-76
2022/04/14 09:31:11;;;;;;;5.65;3.85;;;;;;;17.21;26.04;100764.63;4879649;29;20101;-78
2022/04/14 09:33:49;;;;;;;6.95;3.90;;;;;;;17.51;26.04;100765.84;4881508;29;20048;-78
2022/04/14 09:36:19;;;;;;;7.22;4.03;;;;;;;17.44;25.07;100770.84;4879772;29;20136;-79
2022/04/14 09:38:58;;;;;;;6.93;3.83;;;;;;;17.36;25.43;100767.91;4881007;29;20078;-77
2022/04/14 09:41:31;;;;;;;7.03;3.63;;;;;;;17.40;26.34;100769.41;4880155;29;20467;-79
2022/04/14 09:44:01;;;;;;;7.70;3.55;;;;;;;17.37;26.22;100767.81;4879190;29;20056;-79
2022/04/14 09:46:29;;;;;;;6.93;3.95;;;;;;;17.51;26.14;100773.94;4881090;29;20519;-78
2022/04/14 09:49:07;;;;;;;7.13;3.38;;;;;;;17.55;25.34;100768.16;4879797;29;20060;-79
2022/04/14 09:51:37;;;;;;;6.53;3.72;;;;;;;17.58;25.79;100773.31;4880190;29;20076;-79
2022/04/14 09:54:11;;;;;;;6.95;3.97;;;;;;;17.58;25.64;100759.81;4881484;29;20057;-78
2022/04/14 09:56:48;;;;;;;6.88;3.58;;;;;;;17.43;25.09;100755.66;4882433;29;20045;-77
2022/04/14 09:59:18;;;;;;;7.78;3.97;;;;;;;17.47;25.20;100759.84;4879710;29;20056;-79
2022/04/14 10:01:47;;;;;;;7.60;4.00;;;;;;;17.35;25.92;100750.03;4881748;29;20057;-79
2022/04/14 10:04:31;;;;;;;7.07;3.75;;;;;;;17.35;26.09;100755.41;4881273;29;20057;-78
2022/04/14 10:07:06;;;;;;;;;;;;;;;17.40;26.67;100748.69;4881590;29;20059;-78
2022/04/14 10:09:38;;;;;;;8.05;3.55;;;;;;;17.47;26.48;100743.66;4880607;29;19935;-77
2022/04/14 10:12:29;;;;;;;9.52;3.75;;;;;;;17.69;25.92;100737.38;4881069;29;20080;-78
2022/04/14 10:15:02;;;;;;;6.32;3.53;;;;;;;17.72;25.73;100740.69;4879632;29;20063;-78
2022/04/14 10:17:32;;;;;;;11.80;3.42;;;;;;;17.80;25.76;100728.41;4881143;29;20066;-77
2022/04/14 10:20:03;;;;;;;8.13;3.78;;;;;;;17.94;25.17;100737.06;4879987;29;20456;-78
2022/04/14 10:22:32;;;;;;;10.57;3.75;;;;;;;17.99;25.14;100728.59;4881835;29;20045;-78
2022/04/14 10:25:02;;;;;;;7.20;3.50;;;;;;;18.06;24.99;100729.81;4880979;29;20448;-78
2022/04/14 10:27:30;;;;;;;7.20;3.40;;;;;;;17.99;24.66;100728.59;4879406;29;20136;-78
2022/04/14 10:29:59;;;;;;;5.90;3.05;;;;;;;18.05;24.02;100725.41;4883212;29;20056;-78
2022/04/14 10:32:28;;;;;;;6.78;3.40;;;;;;;17.93;24.41;100723.69;4884306;29;20456;-77
2022/04/14 10:34:57;;;;;;;7.75;3.70;;;;;;;17.88;25.01;100725.94;4884769;29;20059;-78
2022/04/14 10:37:31;;;;;;;6.45;3.67;;;;;;;17.89;24.91;100727.66;4892462;29;20067;-78
2022/04/14 10:40:00;;;;;;;5.75;3.10;;;;;;;17.88;24.39;100726.78;4886169;29;20049;-77
2022/04/14 10:42:30;;;;;;;6.32;3.13;;;;;;;18.01;24.78;100721.22;4902662;29;20040;-77
2022/04/14 10:44:58;;;;;;;7.78;3.83;;;;;;;18.06;24.21;100718.16;4885850;29;20056;-77
2022/04/14 10:47:57;;;;;;;6.00;3.35;;;;;;;18.11;24.00;100715.91;4885950;29;20450;-77
2022/04/14 10:50:28;;;;;;;6.78;3.33;;;;;;;18.20;23.31;100712.44;4886163;29;20127;-78
2022/04/14 10:53:23;;;;;;;7.20;3.15;;;;;;;18.28;23.62;100708.09;4903051;29;20053;-78
2022/04/14 10:55:51;;;;;;;7.55;3.17;;;;;;;18.40;23.43;100705.31;4885262;29;20079;-78
2022/04/14 10:58:54;;;;;;;6.00;3.15;;;;;;;18.50;24.22;100712.50;4904591;29;20478;-77
2022/04/14 11:02:02;;;;;;;5.63;3.40;;;;;;;18.50;23.08;100708.94;4905076;29;20049;-78
2022/04/14 11:04:34;;;;;;;6.95;3.20;;;;;;;18.57;23.32;100718.25;4886832;29;20053;-78
2022/04/14 11:07:08;;;;;;;5.95;3.40;;;;;;;18.52;22.33;100705.13;4885567;29;20090;-78
2022/04/14 11:09:51;;;;;;;8.07;3.20;;;;;;;18.69;22.87;100716.34;4885881;29;20061;-78
2022/04/14 11:12:20;;;;;;;;;;;;;;;18.56;23.05;100712.00;4902788;29;20044;-78
2022/04/14 11:14:51;;;;;;;6.15;3.30;;;;;;;18.39;23.38;100701.78;4902145;29;19923;-78
2022/04/14 11:17:58;;;;;;;6.25;3.40;;;;;;;18.39;23.31;100706.31;4885618;29;20143;-78
2022/04/14 11:20:52;;;;;;;6.50;3.25;;;;;;;18.66;24.07;100700.41;4885682;29;20048;-78
2022/04/14 11:23:26;;;;;;;6.40;3.55;;;;;;;18.84;23.39;100706.94;4884806;29;20052;-77
2022/04/14 11:26:04;;;;;;;8.95;3.65;;;;;;;18.72;23.25;100695.34;4902358;29;20056;-78
2022/04/14 11:28:34;;;;;;;7.50;3.25;;;;;;;18.71;23.38;100693.59;4885001;29;20151;-78
2022/04/14 11:31:05;;;;;;;8.30;4.05;;;;;;;18.87;23.36;100691.28;4885521;29;20075;-78
2022/04/14 11:33:43;;;;;;;7.32;3.58;;;;;;;18.84;23.50;100694.25;4885842;29;20056;-78